Terminal Aerodrome Forecast
Issued by NWS

Home | Current Version | Previous Version | Text Only | Print | Product List | Glossary On
Versions: 1 2 3 4 5 6 7 8 9 10 11 12 13
358
FTUS41 KBTV 202329
TAFRUT
TAF
KRUT 202329Z 2100/2124 VRB04KT P6SM SKC
     FM210300 12005KT P6SM SKC
     FM211700 16008KT P6SM BKN150=

USA.gov is the U.S. government's official web portal to all federal, state and local government web resources and services.